sensor_id;sensor_type;location;lat;lon;timestamp;temperature;humidity
57709;SHT35;42558;52.388;13.390;2024-03-06T00:01:58;-0.65;86.94
57709;SHT35;42558;52.388;13.390;2024-03-06T00:04:27;-0.67;86.97
57709;SHT35;42558;52.388;13.390;2024-03-06T00:06:55;-0.66;87.10
57709;SHT35;42558;52.388;13.390;2024-03-06T00:09:27;-0.67;87.10
57709;SHT35;42558;52.388;13.390;2024-03-06T00:11:55;-0.67;87.21
57709;SHT35;42558;52.388;13.390;2024-03-06T00:14:27;-0.67;87.26
57709;SHT35;42558;52.388;13.390;2024-03-06T00:16:57;-0.70;87.20
57709;SHT35;42558;52.388;13.390;2024-03-06T00:19:27;-0.71;87.27
57709;SHT35;42558;52.388;13.390;2024-03-06T00:21:57;-0.73;87.30
57709;SHT35;42558;52.388;13.390;2024-03-06T00:24:27;-0.73;87.34
57709;SHT35;42558;52.388;13.390;2024-03-06T00:26:56;-0.75;87.30
57709;SHT35;42558;52.388;13.390;2024-03-06T00:29:26;-0.76;87.33
57709;SHT35;42558;52.388;13.390;2024-03-06T00:32:00;-0.77;87.38
57709;SHT35;42558;52.388;13.390;2024-03-06T00:34:30;-0.77;87.45
57709;SHT35;42558;52.388;13.390;2024-03-06T00:37:01;-0.77;87.50
57709;SHT35;42558;52.388;13.390;2024-03-06T00:39:31;-0.77;87.56
57709;SHT35;42558;52.388;13.390;2024-03-06T00:42:01;-0.75;87.63
57709;SHT35;42558;52.388;13.390;2024-03-06T00:44:31;-0.78;87.60
57709;SHT35;42558;52.388;13.390;2024-03-06T00:47:01;-0.79;87.62
57709;SHT35;42558;52.388;13.390;2024-03-06T00:49:31;-0.83;87.60
57709;SHT35;42558;52.388;13.390;2024-03-06T00:52:01;-0.85;87.64
57709;SHT35;42558;52.388;13.390;2024-03-06T00:54:33;-0.87;87.68
57709;SHT35;42558;52.388;13.390;2024-03-06T00:57:03;-0.90;87.70
57709;SHT35;42558;52.388;13.390;2024-03-06T00:59:33;-0.89;87.76
57709;SHT35;42558;52.388;13.390;2024-03-06T01:02:03;-0.89;87.80
57709;SHT35;42558;52.388;13.390;2024-03-06T01:04:33;-0.90;87.80
57709;SHT35;42558;52.388;13.390;2024-03-06T01:07:03;-0.94;87.80
57709;SHT35;42558;52.388;13.390;2024-03-06T01:09:33;-0.96;87.80
57709;SHT35;42558;52.388;13.390;2024-03-06T01:12:01;-0.98;87.81
57709;SHT35;42558;52.388;13.390;2024-03-06T01:14:31;-1.01;87.84
57709;SHT35;42558;52.388;13.390;2024-03-06T01:16:59;-1.00;87.89
57709;SHT35;42558;52.388;13.390;2024-03-06T01:19:27;-1.01;87.95
57709;SHT35;42558;52.388;13.390;2024-03-06T01:21:55;-0.99;88.01
57709;SHT35;42558;52.388;13.390;2024-03-06T01:24:23;-1.00;88.10
57709;SHT35;42558;52.388;13.390;2024-03-06T01:26:50;-0.98;88.17
57709;SHT35;42558;52.388;13.390;2024-03-06T01:29:19;-1.01;88.10
57709;SHT35;42558;52.388;13.390;2024-03-06T01:31:48;-1.03;88.11
57709;SHT35;42558;52.388;13.390;2024-03-06T01:34:17;-1.04;88.20
57709;SHT35;42558;52.388;13.390;2024-03-06T01:36:47;-1.05;88.20
57709;SHT35;42558;52.388;13.390;2024-03-06T01:39:18;-1.04;88.25
57709;SHT35;42558;52.388;13.390;2024-03-06T01:41:49;-1.04;88.30
57709;SHT35;42558;52.388;13.390;2024-03-06T01:44:20;-1.06;88.29
57709;SHT35;42558;52.388;13.390;2024-03-06T01:46:50;-1.06;88.33
57709;SHT35;42558;52.388;13.390;2024-03-06T01:49:20;-1.06;88.39
57709;SHT35;42558;52.388;13.390;2024-03-06T01:52:04;-1.07;88.40
57709;SHT35;42558;52.388;13.390;2024-03-06T01:54:36;-1.08;88.40
57709;SHT35;42558;52.388;13.390;2024-03-06T01:57:07;-1.11;88.41
57709;SHT35;42558;52.388;13.390;2024-03-06T01:59:40;-1.10;88.49
57709;SHT35;42558;52.388;13.390;2024-03-06T02:02:12;-1.09;88.53
57709;SHT35;42558;52.388;13.390;2024-03-06T02:04:42;-1.12;88.50
57709;SHT35;42558;52.388;13.390;2024-03-06T02:07:12;-1.12;88.50
57709;SHT35;42558;52.388;13.390;2024-03-06T02:09:45;-1.15;88.49
57709;SHT35;42558;52.388;13.390;2024-03-06T02:12:15;-1.18;88.43
57709;SHT35;42558;52.388;13.390;2024-03-06T02:14:45;-1.17;88.50
57709;SHT35;42558;52.388;13.390;2024-03-06T02:17:15;-1.17;88.52
57709;SHT35;42558;52.388;13.390;2024-03-06T02:19:45;-1.16;88.57
57709;SHT35;42558;52.388;13.390;2024-03-06T02:22:16;-1.20;88.51
57709;SHT35;42558;52.388;13.390;2024-03-06T02:24:47;-1.21;88.52
57709;SHT35;42558;52.388;13.390;2024-03-06T02:27:19;-1.22;88.55
57709;SHT35;42558;52.388;13.390;2024-03-06T02:29:49;-1.22;88.59
57709;SHT35;42558;52.388;13.390;2024-03-06T02:32:19;-1.25;88.53
57709;SHT35;42558;52.388;13.390;2024-03-06T02:34:50;-1.26;88.60
57709;SHT35;42558;52.388;13.390;2024-03-06T02:37:20;-1.25;88.64
57709;SHT35;42558;52.388;13.390;2024-03-06T02:39:50;-1.26;88.67
57709;SHT35;42558;52.388;13.390;2024-03-06T02:42:20;-1.29;88.65
57709;SHT35;42558;52.388;13.390;2024-03-06T02:44:50;-1.28;88.70
57709;SHT35;42558;52.388;13.390;2024-03-06T02:47:20;-1.28;88.75
57709;SHT35;42558;52.388;13.390;2024-03-06T02:49:50;-1.32;88.69
57709;SHT35;42558;52.388;13.390;2024-03-06T02:52:21;-1.35;88.70
57709;SHT35;42558;52.388;13.390;2024-03-06T02:54:52;-1.34;88.73
57709;SHT35;42558;52.388;13.390;2024-03-06T02:57:22;-1.35;88.78
57709;SHT35;42558;52.388;13.390;2024-03-06T02:59:52;-1.34;88.80
57709;SHT35;42558;52.388;13.390;2024-03-06T03:02:22;-1.37;88.80
57709;SHT35;42558;52.388;13.390;2024-03-06T03:04:53;-1.40;88.78
57709;SHT35;42558;52.388;13.390;2024-03-06T03:07:23;-1.41;88.80
57709;SHT35;42558;52.388;13.390;2024-03-06T03:09:53;-1.40;88.82
57709;SHT35;42558;52.388;13.390;2024-03-06T03:12:21;-1.38;88.91
57709;SHT35;42558;52.388;13.390;2024-03-06T03:14:50;-1.39;88.91
57709;SHT35;42558;52.388;13.390;2024-03-06T03:17:18;-1.40;88.90
57709;SHT35;42558;52.388;13.390;2024-03-06T03:19:47;-1.43;88.90
57709;SHT35;42558;52.388;13.390;2024-03-06T03:22:15;-1.43;88.90
57709;SHT35;42558;52.388;13.390;2024-03-06T03:24:43;-1.45;88.90
57709;SHT35;42558;52.388;13.390;2024-03-06T03:27:12;-1.46;88.91
57709;SHT35;42558;52.388;13.390;2024-03-06T03:29:40;-1.46;89.00
57709;SHT35;42558;52.388;13.390;2024-03-06T03:32:09;-1.46;89.00
57709;SHT35;42558;52.388;13.390;2024-03-06T03:34:37;-1.43;89.08
57709;SHT35;42558;52.388;13.390;2024-03-06T03:37:05;-1.41;89.12
57709;SHT35;42558;52.388;13.390;2024-03-06T03:39:34;-1.34;89.21
57709;SHT35;42558;52.388;13.390;2024-03-06T03:42:02;-1.33;89.28
57709;SHT35;42558;52.388;13.390;2024-03-06T03:44:31;-1.33;89.30
57709;SHT35;42558;52.388;13.390;2024-03-06T03:46:59;-1.36;89.29
57709;SHT35;42558;52.388;13.390;2024-03-06T03:49:28;-1.40;89.22
57709;SHT35;42558;52.388;13.390;2024-03-06T03:51:56;-1.40;89.30
57709;SHT35;42558;52.388;13.390;2024-03-06T03:54:25;-1.41;89.36
57709;SHT35;42558;52.388;13.390;2024-03-06T03:56:53;-1.40;89.41
57709;SHT35;42558;52.388;13.390;2024-03-06T03:59:20;-1.40;89.45
57709;SHT35;42558;52.388;13.390;2024-03-06T04:01:48;-1.39;89.46
57709;SHT35;42558;52.388;13.390;2024-03-06T04:04:18;-1.38;89.54
57709;SHT35;42558;52.388;13.390;2024-03-06T04:06:47;-1.39;89.57
57709;SHT35;42558;52.388;13.390;2024-03-06T04:09:17;-1.43;89.50
57709;SHT35;42558;52.388;13.390;2024-03-06T04:11:47;-1.46;89.50
57709;SHT35;42558;52.388;13.390;2024-03-06T04:14:17;-1.47;89.53
57709;SHT35;42558;52.388;13.390;2024-03-06T04:16:46;-1.48;89.56
57709;SHT35;42558;52.388;13.390;2024-03-06T04:19:14;-1.49;89.58
57709;SHT35;42558;52.388;13.390;2024-03-06T04:21:43;-1.45;89.71
57709;SHT35;42558;52.388;13.390;2024-03-06T04:24:11;-1.42;89.80
57709;SHT35;42558;52.388;13.390;2024-03-06T04:26:40;-1.45;89.73
57709;SHT35;42558;52.388;13.390;2024-03-06T04:29:08;-1.53;89.62
57709;SHT35;42558;52.388;13.390;2024-03-06T04:31:36;-1.57;89.60
57709;SHT35;42558;52.388;13.390;2024-03-06T04:34:05;-1.57;89.68
57709;SHT35;42558;52.388;13.390;2024-03-06T04:36:33;-1.56;89.72
57709;SHT35;42558;52.388;13.390;2024-03-06T04:39:02;-1.55;89.80
57709;SHT35;42558;52.388;13.390;2024-03-06T04:41:37;-1.55;89.79
57709;SHT35;42558;52.388;13.390;2024-03-06T04:44:06;-1.60;89.71
57709;SHT35;42558;52.388;13.390;2024-03-06T04:46:36;-1.61;89.71
57709;SHT35;42558;52.388;13.390;2024-03-06T04:49:06;-1.59;89.78
57709;SHT35;42558;52.388;13.390;2024-03-06T04:51:37;-1.57;89.86
57709;SHT35;42558;52.388;13.390;2024-03-06T04:54:07;-1.55;89.86
57709;SHT35;42558;52.388;13.390;2024-03-06T04:56:38;-1.59;89.81
57709;SHT35;42558;52.388;13.390;2024-03-06T04:59:08;-1.63;89.79
57709;SHT35;42558;52.388;13.390;2024-03-06T05:01:38;-1.61;89.86
57709;SHT35;42558;52.388;13.390;2024-03-06T05:04:07;-1.62;89.88
57709;SHT35;42558;52.388;13.390;2024-03-06T05:06:55;-1.62;89.89
57709;SHT35;42558;52.388;13.390;2024-03-06T05:09:43;-1.63;89.90
57709;SHT35;42558;52.388;13.390;2024-03-06T05:12:31;-1.64;89.90
57709;SHT35;42558;52.388;13.390;2024-03-06T05:15:18;-1.67;89.90
57709;SHT35;42558;52.388;13.390;2024-03-06T05:18:06;-1.68;89.95
57709;SHT35;42558;52.388;13.390;2024-03-06T05:20:56;-1.67;90.00
57709;SHT35;42558;52.388;13.390;2024-03-06T05:23:43;-1.69;90.00
57709;SHT35;42558;52.388;13.390;2024-03-06T05:26:31;-1.73;89.93
57709;SHT35;42558;52.388;13.390;2024-03-06T05:29:18;-1.74;89.98
57709;SHT35;42558;52.388;13.390;2024-03-06T05:32:06;-1.74;89.98
57709;SHT35;42558;52.388;13.390;2024-03-06T05:34:56;-1.75;90.00
57709;SHT35;42558;52.388;13.390;2024-03-06T05:37:48;-1.75;90.00
57709;SHT35;42558;52.388;13.390;2024-03-06T05:40:35;-1.77;90.00
57709;SHT35;42558;52.388;13.390;2024-03-06T05:43:21;-1.77;89.97
57709;SHT35;42558;52.388;13.390;2024-03-06T05:46:08;-1.77;90.00
57709;SHT35;42558;52.388;13.390;2024-03-06T05:48:56;-1.74;90.02
57709;SHT35;42558;52.388;13.390;2024-03-06T05:51:43;-1.68;90.10
57709;SHT35;42558;52.388;13.390;2024-03-06T05:54:32;-1.60;90.21
57709;SHT35;42558;52.388;13.390;2024-03-06T05:57:22;-1.45;90.37
57709;SHT35;42558;52.388;13.390;2024-03-06T06:00:10;-1.21;90.66
57709;SHT35;42558;52.388;13.390;2024-03-06T06:02:41;-1.10;90.74
57709;SHT35;42558;52.388;13.390;2024-03-06T06:05:12;-0.99;90.83
57709;SHT35;42558;52.388;13.390;2024-03-06T06:07:47;-0.81;91.00
57709;SHT35;42558;52.388;13.390;2024-03-06T06:10:17;-0.68;91.20
57709;SHT35;42558;52.388;13.390;2024-03-06T06:12:50;-0.46;91.45
57709;SHT35;42558;52.388;13.390;2024-03-06T06:15:22;-0.27;91.77
57709;SHT35;42558;52.388;13.390;2024-03-06T06:17:52;-0.31;91.67
57709;SHT35;42558;52.388;13.390;2024-03-06T06:20:20;-0.37;91.51
57709;SHT35;42558;52.388;13.390;2024-03-06T06:22:49;-0.36;91.45
57709;SHT35;42558;52.388;13.390;2024-03-06T06:25:17;-0.32;91.45
57709;SHT35;42558;52.388;13.390;2024-03-06T06:27:46;-0.29;91.41
57709;SHT35;42558;52.388;13.390;2024-03-06T06:30:17;-0.21;91.48
57709;SHT35;42558;52.388;13.390;2024-03-06T06:32:45;-0.16;91.46
57709;SHT35;42558;52.388;13.390;2024-03-06T06:35:14;-0.04;91.62
57709;SHT35;42558;52.388;13.390;2024-03-06T06:37:42;0.10;91.79
57709;SHT35;42558;52.388;13.390;2024-03-06T06:40:11;0.17;91.85
57709;SHT35;42558;52.388;13.390;2024-03-06T06:42:48;0.25;91.86
57709;SHT35;42558;52.388;13.390;2024-03-06T06:45:20;0.30;91.82
57709;SHT35;42558;52.388;13.390;2024-03-06T06:47:53;0.35;91.77
57709;SHT35;42558;52.388;13.390;2024-03-06T06:50:23;0.37;91.68
57709;SHT35;42558;52.388;13.390;2024-03-06T06:52:55;0.42;91.62
57709;SHT35;42558;52.388;13.390;2024-03-06T06:55:25;0.47;91.58
57709;SHT35;42558;52.388;13.390;2024-03-06T06:57:56;0.50;91.50
57709;SHT35;42558;52.388;13.390;2024-03-06T07:00:26;0.59;91.50
57709;SHT35;42558;52.388;13.390;2024-03-06T07:02:56;0.69;91.50
57709;SHT35;42558;52.388;13.390;2024-03-06T07:05:28;0.95;91.50
57709;SHT35;42558;52.388;13.390;2024-03-06T07:07:58;1.02;91.15
57709;SHT35;42558;52.388;13.390;2024-03-06T07:10:28;0.89;90.61
57709;SHT35;42558;52.388;13.390;2024-03-06T07:12:58;0.77;90.56
57709;SHT35;42558;52.388;13.390;2024-03-06T07:15:28;0.76;90.66
57709;SHT35;42558;52.388;13.390;2024-03-06T07:17:58;0.65;90.73
57709;SHT35;42558;52.388;13.390;2024-03-06T07:20:28;0.60;91.00
57709;SHT35;42558;52.388;13.390;2024-03-06T07:23:01;0.60;91.15
57709;SHT35;42558;52.388;13.390;2024-03-06T07:25:31;0.70;91.23
57709;SHT35;42558;52.388;13.390;2024-03-06T07:28:01;0.80;91.22
57709;SHT35;42558;52.388;13.390;2024-03-06T07:30:31;0.97;91.23
57709;SHT35;42558;52.388;13.390;2024-03-06T07:33:01;0.94;91.08
57709;SHT35;42558;52.388;13.390;2024-03-06T07:35:31;1.01;91.00
57709;SHT35;42558;52.388;13.390;2024-03-06T07:38:02;0.91;90.80
57709;SHT35;42558;52.388;13.390;2024-03-06T07:40:34;1.02;91.05
57709;SHT35;42558;52.388;13.390;2024-03-06T07:43:04;1.32;91.13
57709;SHT35;42558;52.388;13.390;2024-03-06T07:45:34;1.46;91.04
57709;SHT35;42558;52.388;13.390;2024-03-06T07:48:04;1.67;90.99
57709;SHT35;42558;52.388;13.390;2024-03-06T07:50:35;1.71;90.69
57709;SHT35;42558;52.388;13.390;2024-03-06T07:53:05;1.63;90.27
57709;SHT35;42558;52.388;13.390;2024-03-06T07:55:35;1.82;90.21
57709;SHT35;42558;52.388;13.390;2024-03-06T07:58:04;2.24;90.52
57709;SHT35;42558;52.388;13.390;2024-03-06T08:00:34;2.02;88.42
57709;SHT35;42558;52.388;13.390;2024-03-06T08:03:02;1.81;88.12
57709;SHT35;42558;52.388;13.390;2024-03-06T08:05:33;1.78;88.32
57709;SHT35;42558;52.388;13.390;2024-03-06T08:08:03;2.04;88.48
57709;SHT35;42558;52.388;13.390;2024-03-06T08:10:34;2.32;88.33
57709;SHT35;42558;52.388;13.390;2024-03-06T08:13:04;2.35;87.19
57709;SHT35;42558;52.388;13.390;2024-03-06T08:15:34;2.50;86.92
57709;SHT35;42558;52.388;13.390;2024-03-06T08:18:04;3.17;87.67
57709;SHT35;42558;52.388;13.390;2024-03-06T08:20:35;3.34;85.68
57709;SHT35;42558;52.388;13.390;2024-03-06T08:23:06;3.17;84.14
57709;SHT35;42558;52.388;13.390;2024-03-06T08:25:37;3.08;84.27
57709;SHT35;42558;52.388;13.390;2024-03-06T08:28:08;3.26;84.38
57709;SHT35;42558;52.388;13.390;2024-03-06T08:30:39;3.51;83.66
57709;SHT35;42558;52.388;13.390;2024-03-06T08:33:09;3.53;83.51
57709;SHT35;42558;52.388;13.390;2024-03-06T08:35:40;4.23;83.83
57709;SHT35;42558;52.388;13.390;2024-03-06T08:38:10;4.76;82.25
57709;SHT35;42558;52.388;13.390;2024-03-06T08:40:40;4.56;79.60
57709;SHT35;42558;52.388;13.390;2024-03-06T08:43:15;3.93;81.26
57709;SHT35;42558;52.388;13.390;2024-03-06T08:45:45;4.07;81.09
57709;SHT35;42558;52.388;13.390;2024-03-06T08:48:15;4.42;81.94
57709;SHT35;42558;52.388;13.390;2024-03-06T08:50:45;4.49;79.42
57709;SHT35;42558;52.388;13.390;2024-03-06T08:53:15;4.38;80.25
57709;SHT35;42558;52.388;13.390;2024-03-06T08:55:46;4.09;80.66
57709;SHT35;42558;52.388;13.390;2024-03-06T08:58:16;4.56;80.40
57709;SHT35;42558;52.388;13.390;2024-03-06T09:00:46;4.38;79.88
57709;SHT35;42558;52.388;13.390;2024-03-06T09:03:18;4.48;80.11
57709;SHT35;42558;52.388;13.390;2024-03-06T09:05:48;4.73;79.65
57709;SHT35;42558;52.388;13.390;2024-03-06T09:08:18;5.03;78.57
57709;SHT35;42558;52.388;13.390;2024-03-06T09:10:48;5.19;77.46
57709;SHT35;42558;52.388;13.390;2024-03-06T09:13:18;5.19;77.03
57709;SHT35;42558;52.388;13.390;2024-03-06T09:15:48;4.72;78.38
57709;SHT35;42558;52.388;13.390;2024-03-06T09:18:18;5.08;78.02
57709;SHT35;42558;52.388;13.390;2024-03-06T09:20:48;5.30;76.92
57709;SHT35;42558;52.388;13.390;2024-03-06T09:23:18;5.67;76.60
57709;SHT35;42558;52.388;13.390;2024-03-06T09:25:48;5.48;75.98
57709;SHT35;42558;52.388;13.390;2024-03-06T09:28:16;5.74;76.32
57709;SHT35;42558;52.388;13.390;2024-03-06T09:30:45;6.40;74.36
57709;SHT35;42558;52.388;13.390;2024-03-06T09:33:13;6.49;73.03
57709;SHT35;42558;52.388;13.390;2024-03-06T09:35:41;7.03;72.35
57709;SHT35;42558;52.388;13.390;2024-03-06T09:38:13;7.38;70.83
57709;SHT35;42558;52.388;13.390;2024-03-06T09:40:48;6.90;70.62
57709;SHT35;42558;52.388;13.390;2024-03-06T09:43:19;6.81;71.51
57709;SHT35;42558;52.388;13.390;2024-03-06T09:45:49;6.44;71.57
57709;SHT35;42558;52.388;13.390;2024-03-06T09:48:20;6.85;71.46
57709;SHT35;42558;52.388;13.390;2024-03-06T09:50:51;7.29;69.58
57709;SHT35;42558;52.388;13.390;2024-03-06T09:53:24;6.30;70.99
57709;SHT35;42558;52.388;13.390;2024-03-06T09:55:56;6.22;73.03
57709;SHT35;42558;52.388;13.390;2024-03-06T09:58:27;6.61;71.44
57709;SHT35;42558;52.388;13.390;2024-03-06T10:00:58;7.31;70.07
57709;SHT35;42558;52.388;13.390;2024-03-06T10:03:33;7.50;68.81
57709;SHT35;42558;52.388;13.390;2024-03-06T10:06:03;7.93;67.46
57709;SHT35;42558;52.388;13.390;2024-03-06T10:08:41;8.05;66.10
57709;SHT35;42558;52.388;13.390;2024-03-06T10:11:13;8.32;66.20
57709;SHT35;42558;52.388;13.390;2024-03-06T10:13:41;8.69;64.53
57709;SHT35;42558;52.388;13.390;2024-03-06T10:16:10;8.59;64.73
57709;SHT35;42558;52.388;13.390;2024-03-06T10:18:38;8.85;64.59
57709;SHT35;42558;52.388;13.390;2024-03-06T10:21:07;9.16;62.31
57709;SHT35;42558;52.388;13.390;2024-03-06T10:23:37;8.78;63.18
57709;SHT35;42558;52.388;13.390;2024-03-06T10:26:06;7.85;64.15
57709;SHT35;42558;52.388;13.390;2024-03-06T10:28:37;8.15;66.16
57709;SHT35;42558;52.388;13.390;2024-03-06T10:31:14;7.86;64.52
57709;SHT35;42558;52.388;13.390;2024-03-06T10:33:44;7.79;67.03
57709;SHT35;42558;52.388;13.390;2024-03-06T10:36:14;8.05;64.43
57709;SHT35;42558;52.388;13.390;2024-03-06T10:38:44;8.31;65.02
57709;SHT35;42558;52.388;13.390;2024-03-06T10:41:16;9.01;62.90
57709;SHT35;42558;52.388;13.390;2024-03-06T10:43:54;9.30;62.09
57709;SHT35;42558;52.388;13.390;2024-03-06T10:46:25;9.89;61.55
57709;SHT35;42558;52.388;13.390;2024-03-06T10:48:58;9.32;60.86
57709;SHT35;42558;52.388;13.390;2024-03-06T10:51:29;9.38;60.99
57709;SHT35;42558;52.388;13.390;2024-03-06T10:54:02;7.77;64.23
57709;SHT35;42558;52.388;13.390;2024-03-06T10:56:33;8.35;64.05
57709;SHT35;42558;52.388;13.390;2024-03-06T10:59:03;9.30;62.69
57709;SHT35;42558;52.388;13.390;2024-03-06T11:01:36;9.81;59.62
57709;SHT35;42558;52.388;13.390;2024-03-06T11:04:06;9.09;60.42
57709;SHT35;42558;52.388;13.390;2024-03-06T11:06:37;8.51;62.59
57709;SHT35;42558;52.388;13.390;2024-03-06T11:09:08;8.58;63.67
57709;SHT35;42558;52.388;13.390;2024-03-06T11:11:50;9.10;62.29
57709;SHT35;42558;52.388;13.390;2024-03-06T11:14:22;8.35;61.60
57709;SHT35;42558;52.388;13.390;2024-03-06T11:17:05;8.20;62.82
57709;SHT35;42558;52.388;13.390;2024-03-06T11:28:16;9.65;59.98
57709;SHT35;42558;52.388;13.390;2024-03-06T11:30:55;9.75;58.15
57709;SHT35;42558;52.388;13.390;2024-03-06T11:33:43;9.50;60.20
57709;SHT35;42558;52.388;13.390;2024-03-06T11:38:56;9.13;60.67
57709;SHT35;42558;52.388;13.390;2024-03-06T11:41:31;8.15;64.40
57709;SHT35;42558;52.388;13.390;2024-03-06T11:44:17;8.86;63.73
57709;SHT35;42558;52.388;13.390;2024-03-06T11:47:00;8.70;63.44
57709;SHT35;42558;52.388;13.390;2024-03-06T11:49:33;8.48;64.02
57709;SHT35;42558;52.388;13.390;2024-03-06T11:52:05;8.40;65.20
57709;SHT35;42558;52.388;13.390;2024-03-06T11:54:40;8.39;65.30
57709;SHT35;42558;52.388;13.390;2024-03-06T11:57:10;8.41;64.76
57709;SHT35;42558;52.388;13.390;2024-03-06T11:59:41;8.48;64.99
57709;SHT35;42558;52.388;13.390;2024-03-06T12:02:12;8.71;64.39
57709;SHT35;42558;52.388;13.390;2024-03-06T12:04:42;8.83;63.59
57709;SHT35;42558;52.388;13.390;2024-03-06T12:07:12;8.87;63.14
57709;SHT35;42558;52.388;13.390;2024-03-06T12:09:42;8.82;61.27
57709;SHT35;42558;52.388;13.390;2024-03-06T12:12:13;8.94;61.15
57709;SHT35;42558;52.388;13.390;2024-03-06T12:14:41;9.14;61.75
57709;SHT35;42558;52.388;13.390;2024-03-06T12:17:13;9.03;61.92
57709;SHT35;42558;52.388;13.390;2024-03-06T12:19:47;8.72;63.09
57709;SHT35;42558;52.388;13.390;2024-03-06T12:22:17;8.66;63.16
57709;SHT35;42558;52.388;13.390;2024-03-06T12:24:57;8.30;63.98
57709;SHT35;42558;52.388;13.390;2024-03-06T12:27:27;8.18;63.85
57709;SHT35;42558;52.388;13.390;2024-03-06T12:29:57;8.42;64.24
57709;SHT35;42558;52.388;13.390;2024-03-06T12:32:26;8.97;62.87
57709;SHT35;42558;52.388;13.390;2024-03-06T12:34:59;9.08;60.90
57709;SHT35;42558;52.388;13.390;2024-03-06T12:37:29;9.38;61.30
57709;SHT35;42558;52.388;13.390;2024-03-06T12:40:05;8.98;61.29
57709;SHT35;42558;52.388;13.390;2024-03-06T12:42:42;9.01;61.23
57709;SHT35;42558;52.388;13.390;2024-03-06T12:45:13;9.04;60.43
57709;SHT35;42558;52.388;13.390;2024-03-06T12:47:44;8.91;60.31
57709;SHT35;42558;52.388;13.390;2024-03-06T12:50:18;9.16;60.84
57709;SHT35;42558;52.388;13.390;2024-03-06T12:52:48;9.18;59.71
57709;SHT35;42558;52.388;13.390;2024-03-06T12:55:18;9.01;59.38
57709;SHT35;42558;52.388;13.390;2024-03-06T12:57:48;8.88;60.02
57709;SHT35;42558;52.388;13.390;2024-03-06T13:00:19;9.13;61.26
57709;SHT35;42558;52.388;13.390;2024-03-06T13:02:49;9.27;60.53
57709;SHT35;42558;52.388;13.390;2024-03-06T13:05:22;9.48;60.47
57709;SHT35;42558;52.388;13.390;2024-03-06T13:07:53;9.41;59.42
57709;SHT35;42558;52.388;13.390;2024-03-06T13:10:23;9.56;59.42
57709;SHT35;42558;52.388;13.390;2024-03-06T13:12:52;9.45;59.15
57709;SHT35;42558;52.388;13.390;2024-03-06T13:15:22;9.34;59.45
57709;SHT35;42558;52.388;13.390;2024-03-06T13:17:52;9.06;59.81
57709;SHT35;42558;52.388;13.390;2024-03-06T13:20:22;9.08;60.13
57709;SHT35;42558;52.388;13.390;2024-03-06T13:22:52;9.21;59.31
57709;SHT35;42558;52.388;13.390;2024-03-06T13:25:22;9.04;59.38
57709;SHT35;42558;52.388;13.390;2024-03-06T13:27:52;9.15;60.08
57709;SHT35;42558;52.388;13.390;2024-03-06T13:30:23;9.00;59.20
57709;SHT35;42558;52.388;13.390;2024-03-06T13:32:54;8.83;60.01
57709;SHT35;42558;52.388;13.390;2024-03-06T13:35:24;8.79;60.99
57709;SHT35;42558;52.388;13.390;2024-03-06T13:37:54;8.68;61.00
57709;SHT35;42558;52.388;13.390;2024-03-06T13:40:24;8.56;62.57
57709;SHT35;42558;52.388;13.390;2024-03-06T13:42:56;8.64;62.01
57709;SHT35;42558;52.388;13.390;2024-03-06T13:45:24;8.66;62.45
57709;SHT35;42558;52.388;13.390;2024-03-06T13:47:52;8.82;62.70
57709;SHT35;42558;52.388;13.390;2024-03-06T13:50:21;8.69;61.79
57709;SHT35;42558;52.388;13.390;2024-03-06T13:52:52;8.60;62.37
57709;SHT35;42558;52.388;13.390;2024-03-06T13:55:21;8.73;62.36
57709;SHT35;42558;52.388;13.390;2024-03-06T13:57:49;8.42;61.99
57709;SHT35;42558;52.388;13.390;2024-03-06T14:00:18;8.47;61.76
57709;SHT35;42558;52.388;13.390;2024-03-06T14:02:46;8.46;61.53
57709;SHT35;42558;52.388;13.390;2024-03-06T14:05:14;8.46;61.70
57709;SHT35;42558;52.388;13.390;2024-03-06T14:07:43;8.26;61.69
57709;SHT35;42558;52.388;13.390;2024-03-06T14:10:11;8.20;62.27
57709;SHT35;42558;52.388;13.390;2024-03-06T14:12:40;8.12;62.90
57709;SHT35;42558;52.388;13.390;2024-03-06T14:15:08;8.01;63.59
57709;SHT35;42558;52.388;13.390;2024-03-06T14:17:42;8.04;64.36
57709;SHT35;42558;52.388;13.390;2024-03-06T14:20:12;8.01;64.21
57709;SHT35;42558;52.388;13.390;2024-03-06T14:22:43;7.96;64.73
57709;SHT35;42558;52.388;13.390;2024-03-06T14:25:14;7.82;65.46
57709;SHT35;42558;52.388;13.390;2024-03-06T14:27:45;7.55;66.24
57709;SHT35;42558;52.388;13.390;2024-03-06T14:30:16;7.55;66.53
57709;SHT35;42558;52.388;13.390;2024-03-06T14:32:48;7.62;66.50
57709;SHT35;42558;52.388;13.390;2024-03-06T14:35:18;7.61;66.50
57709;SHT35;42558;52.388;13.390;2024-03-06T14:37:48;7.55;66.74
57709;SHT35;42558;52.388;13.390;2024-03-06T14:40:18;7.54;66.28
57709;SHT35;42558;52.388;13.390;2024-03-06T14:42:48;7.47;65.78
57709;SHT35;42558;52.388;13.390;2024-03-06T14:45:20;7.52;65.32
57709;SHT35;42558;52.388;13.390;2024-03-06T14:47:48;7.51;64.53
57709;SHT35;42558;52.388;13.390;2024-03-06T14:50:18;7.53;64.51
57709;SHT35;42558;52.388;13.390;2024-03-06T14:52:47;7.61;64.23
57709;SHT35;42558;52.388;13.390;2024-03-06T14:55:17;7.67;63.90
57709;SHT35;42558;52.388;13.390;2024-03-06T14:57:47;7.55;63.46
57709;SHT35;42558;52.388;13.390;2024-03-06T15:00:17;7.63;63.90
57709;SHT35;42558;52.388;13.390;2024-03-06T15:02:50;7.81;64.08
57709;SHT35;42558;52.388;13.390;2024-03-06T15:05:20;7.88;63.29
57709;SHT35;42558;52.388;13.390;2024-03-06T15:07:50;7.87;63.42
57709;SHT35;42558;52.388;13.390;2024-03-06T15:10:20;7.82;63.20
57709;SHT35;42558;52.388;13.390;2024-03-06T15:12:50;7.67;62.85
57709;SHT35;42558;52.388;13.390;2024-03-06T15:15:22;7.65;63.10
57709;SHT35;42558;52.388;13.390;2024-03-06T15:17:52;7.65;64.06
57709;SHT35;42558;52.388;13.390;2024-03-06T15:20:22;7.68;64.36
57709;SHT35;42558;52.388;13.390;2024-03-06T15:22:52;7.61;64.73
57709;SHT35;42558;52.388;13.390;2024-03-06T15:25:22;7.58;65.26
57709;SHT35;42558;52.388;13.390;2024-03-06T15:27:52;7.54;65.31
57709;SHT35;42558;52.388;13.390;2024-03-06T15:30:22;7.59;65.58
57709;SHT35;42558;52.388;13.390;2024-03-06T15:32:52;7.65;65.68
57709;SHT35;42558;52.388;13.390;2024-03-06T15:35:22;7.64;65.50
57709;SHT35;42558;52.388;13.390;2024-03-06T15:37:53;7.72;65.67
57709;SHT35;42558;52.388;13.390;2024-03-06T15:40:24;7.78;64.88
57709;SHT35;42558;52.388;13.390;2024-03-06T15:42:54;7.74;65.16
57709;SHT35;42558;52.388;13.390;2024-03-06T15:45:26;7.66;65.13
57709;SHT35;42558;52.388;13.390;2024-03-06T15:47:56;7.73;65.21
57709;SHT35;42558;52.388;13.390;2024-03-06T15:50:26;7.64;65.46
57709;SHT35;42558;52.388;13.390;2024-03-06T15:52:56;7.57;66.09
57709;SHT35;42558;52.388;13.390;2024-03-06T15:55:26;7.64;66.18
57709;SHT35;42558;52.388;13.390;2024-03-06T15:57:56;7.75;66.73
57709;SHT35;42558;52.388;13.390;2024-03-06T16:00:26;7.76;66.45
57709;SHT35;42558;52.388;13.390;2024-03-06T16:02:56;7.67;66.50